createdAt,value
2023-01-13T01:53:30.047Z,3.10
2023-01-13T01:56:19.767Z,3.30
2023-01-13T03:45:50.815Z,5.60
2023-01-13T03:51:29.892Z,5.00
2023-01-13T04:00:22.280Z,5.70
2023-01-13T04:03:40.363Z,6.10
2023-01-13T04:06:46.981Z,6.00
2023-01-13T04:10:00.219Z,5.70
2023-01-13T04:13:22.824Z,6.00
2023-01-13T04:16:12.721Z,7.30
2023-01-13T04:19:14.882Z,6.50
2023-01-13T04:22:28.432Z,6.20
2023-01-13T04:25:34.806Z,5.90
2023-01-13T04:31:40.744Z,6.00
2023-01-13T04:34:42.575Z,5.70
2023-01-13T04:37:33.101Z,5.90
2023-01-13T04:40:37.783Z,5.70
2023-01-13T04:43:48.687Z,5.70
2023-01-13T04:49:26.832Z,5.70
2023-01-13T04:55:07.933Z,6.20
2023-01-13T05:00:48.740Z,6.40
2023-01-13T05:04:03.173Z,5.30
2023-01-13T05:09:43.046Z,5.10
2023-01-13T05:12:55.750Z,4.70
2023-01-13T05:15:44.017Z,4.80
2023-01-13T05:18:45.620Z,5.70
2023-01-13T05:24:52.586Z,5.80
2023-01-13T07:06:27.690Z,4.80
2023-01-13T07:09:17.730Z,6.10
2023-01-13T07:12:29.796Z,5.40
2023-01-13T07:15:31.669Z,5.20
2023-01-13T07:18:36.081Z,5.60
2023-01-13T07:21:27.652Z,6.00
2023-01-13T07:24:29.722Z,6.80
2023-01-13T07:30:53.731Z,4.70
2023-01-13T07:39:47.845Z,5.90
2023-01-13T07:42:56.375Z,4.90
2023-01-13T07:48:50.761Z,6.10
2023-01-13T07:51:54.591Z,6.70
2023-01-13T07:54:44.749Z,5.90
2023-01-13T08:00:23.753Z,6.00
2023-01-13T08:03:35.497Z,6.20
2023-01-13T08:06:39.727Z,5.50
2023-01-13T08:16:23.454Z,8.70
2023-01-13T08:21:50.704Z,4.60
2023-01-13T08:24:52.848Z,5.20
2023-01-13T08:27:55.218Z,6.30
2023-01-13T11:36:25.230Z,3.20
2023-01-13T11:40:20.957Z,3.00
2023-01-13T11:54:07.505Z,3.30
2023-01-13T11:58:14.624Z,3.20
2023-01-13T12:05:01.255Z,3.40
2023-01-13T12:21:52.710Z,5.50
2023-01-13T12:25:40.615Z,5.20
2023-01-13T12:29:34.113Z,4.30
2023-01-13T12:36:16.875Z,3.50
2023-01-13T13:25:37.996Z,5.60
2023-01-13T13:29:15.108Z,5.50
2023-01-13T13:33:14.152Z,4.70
2023-01-13T13:36:32.911Z,6.30
2023-01-13T13:40:25.180Z,6.40
2023-01-13T13:43:18.955Z,5.80
2023-01-13T13:47:09.099Z,6.20
2023-01-13T13:50:12.375Z,4.90
2023-01-13T13:54:06.085Z,4.30
2023-01-13T13:59:46.752Z,6.40
2023-01-13T14:02:48.584Z,6.40
2023-01-13T14:06:08.590Z,6.80
2023-01-13T14:09:45.125Z,5.00
2023-01-13T14:16:22.088Z,5.90
2023-01-13T14:20:31.468Z,5.20
2023-01-13T14:28:10.792Z,6.50
2023-01-13T14:34:48.540Z,5.10
2023-01-13T14:38:44.299Z,6.70
2023-01-13T14:44:59.899Z,5.10
2023-01-13T14:48:44.754Z,5.30
2023-01-13T14:54:59.002Z,7.50
2023-01-13T14:58:54.025Z,7.70
2023-01-13T15:02:46.076Z,7.90
2023-01-13T15:30:58.746Z,8.30
2023-01-13T15:34:20.652Z,8.30
2023-01-13T15:37:25.076Z,9.70
2023-01-13T15:41:04.920Z,9.00
2023-01-13T15:44:50.962Z,10.20
2023-01-13T15:48:38.780Z,9.50
2023-01-13T15:52:26.575Z,9.30
2023-01-13T15:56:17.540Z,7.40
2023-01-13T16:00:09.424Z,8.40
2023-01-13T16:03:57.735Z,9.50
2023-01-13T16:07:45.729Z,10.20
2023-01-13T16:11:34.114Z,11.70
2023-01-13T16:15:23.548Z,12.70
2023-01-13T16:19:06.844Z,11.60
2023-01-13T16:22:59.787Z,11.50
2023-01-13T16:26:49.856Z,10.40
2023-01-13T16:55:07.028Z,9.70
2023-01-13T16:58:22.811Z,11.00
2023-01-13T17:16:53.100Z,13.70
2023-01-13T17:20:10.160Z,10.30
2023-01-13T17:29:28.020Z,11.10
2023-01-13T17:32:30.598Z,14.20
2023-01-13T17:35:26.770Z,13.30
2023-01-13T17:53:57.183Z,17.10
2023-01-13T18:03:08.331Z,18.70
2023-01-13T18:09:33.970Z,14.90
2023-01-13T18:16:19.320Z,13.20
2023-01-13T18:19:43.776Z,13.60
2023-01-13T18:23:27.484Z,9.90
2023-01-13T18:27:12.851Z,12.10
2023-01-13T18:30:12.537Z,19.00
2023-01-13T18:39:59.474Z,18.20
2023-01-13T18:45:37.874Z,18.10
2023-01-13T18:48:43.815Z,17.00
2023-01-13T18:52:16.053Z,16.50
2023-01-13T18:55:24.635Z,18.00
2023-01-13T18:58:48.784Z,20.10
2023-01-13T19:05:48.147Z,13.00
2023-01-13T19:11:33.473Z,11.60
2023-01-13T19:14:55.572Z,11.70
2023-01-13T19:18:45.401Z,12.50
2023-01-13T19:22:28.466Z,10.60
2023-01-13T19:26:12.788Z,10.70
2023-01-13T19:30:02.596Z,10.90
2023-01-13T19:36:51.914Z,13.80
2023-01-13T19:43:38.640Z,12.40
2023-01-13T19:46:41.610Z,13.50
2023-01-13T19:53:07.854Z,15.20
2023-01-13T19:59:18.805Z,23.70
2023-01-13T20:02:38.480Z,22.70
2023-01-13T20:05:33.044Z,22.40
2023-01-13T20:09:08.885Z,28.90
2023-01-13T20:12:31.211Z,19.10
2023-01-13T20:19:04.956Z,17.70
2023-01-13T20:22:56.400Z,20.10
2023-01-13T20:26:45.372Z,17.60
2023-01-13T20:33:44.516Z,20.70
2023-01-13T21:02:00.433Z,14.00
2023-01-13T21:08:10.911Z,16.60
2023-01-13T21:15:10.915Z,14.20
2023-01-13T21:55:37.542Z,13.20
2023-01-13T21:58:52.207Z,13.80
2023-01-13T22:29:07.068Z,26.50
2023-01-13T22:32:12.866Z,29.60
2023-01-13T23:20:44.245Z,32.00
2023-01-13T23:24:26.933Z,27.30
2023-01-13T23:28:15.641Z,30.90
2023-01-13T23:32:09.446Z,29.60
2023-01-13T23:35:57.926Z,25.20
2023-01-13T23:39:45.655Z,27.10
2023-01-13T23:43:34.263Z,29.30
2023-01-13T23:47:21.936Z,25.40
2023-01-13T23:54:31.066Z,25.60
2023-01-13T23:57:55.746Z,26.70
